sensor_id;sensor_type;location;lat;lon;timestamp;P1;durP1;ratioP1;P2;durP2;ratioP2
16101;SDS011;56411;52.964;10.540;2023-02-01T00:02:11;16.30;;;4.03;;
16101;SDS011;56411;52.964;10.540;2023-02-01T00:04:38;21.33;;;3.43;;
16101;SDS011;56411;52.964;10.540;2023-02-01T00:07:05;19.00;;;4.67;;
16101;SDS011;56411;52.964;10.540;2023-02-01T00:09:34;18.47;;;4.40;;
16101;SDS011;56411;52.964;10.540;2023-02-01T00:12:01;17.17;;;3.50;;
16101;SDS011;56411;52.964;10.540;2023-02-01T00:14:28;14.53;;;3.20;;
16101;SDS011;56411;52.964;10.540;2023-02-01T00:16:57;19.77;;;3.83;;
16101;SDS011;56411;52.964;10.540;2023-02-01T00:19:24;17.83;;;4.13;;
16101;SDS011;56411;52.964;10.540;2023-02-01T00:21:51;19.37;;;4.00;;
16101;SDS011;56411;52.964;10.540;2023-02-01T00:24:18;19.73;;;4.53;;
16101;SDS011;56411;52.964;10.540;2023-02-01T00:26:46;21.13;;;3.70;;
16101;SDS011;56411;52.964;10.540;2023-02-01T00:29:14;22.07;;;4.13;;
16101;SDS011;56411;52.964;10.540;2023-02-01T00:31:42;23.20;;;4.27;;
16101;SDS011;56411;52.964;10.540;2023-02-01T00:34:10;14.33;;;4.07;;
16101;SDS011;56411;52.964;10.540;2023-02-01T00:36:39;17.53;;;3.50;;
16101;SDS011;56411;52.964;10.540;2023-02-01T00:39:06;19.73;;;3.73;;
16101;SDS011;56411;52.964;10.540;2023-02-01T00:41:33;17.13;;;3.97;;
16101;SDS011;56411;52.964;10.540;2023-02-01T00:44:02;17.43;;;3.80;;
16101;SDS011;56411;52.964;10.540;2023-02-01T00:46:29;21.03;;;3.77;;
16101;SDS011;56411;52.964;10.540;2023-02-01T00:48:56;19.70;;;4.07;;
16101;SDS011;56411;52.964;10.540;2023-02-01T00:51:24;20.33;;;4.60;;
16101;SDS011;56411;52.964;10.540;2023-02-01T00:53:53;20.63;;;3.90;;
16101;SDS011;56411;52.964;10.540;2023-02-01T00:56:20;19.20;;;4.17;;
16101;SDS011;56411;52.964;10.540;2023-02-01T00:58:47;18.33;;;3.47;;
16101;SDS011;56411;52.964;10.540;2023-02-01T01:01:16;21.03;;;4.87;;
16101;SDS011;56411;52.964;10.540;2023-02-01T01:03:45;26.93;;;4.70;;
16101;SDS011;56411;52.964;10.540;2023-02-01T01:06:16;21.77;;;4.63;;
16101;SDS011;56411;52.964;10.540;2023-02-01T01:08:45;22.07;;;4.47;;
16101;SDS011;56411;52.964;10.540;2023-02-01T01:11:13;22.83;;;4.33;;
16101;SDS011;56411;52.964;10.540;2023-02-01T01:13:42;22.93;;;4.50;;
16101;SDS011;56411;52.964;10.540;2023-02-01T01:16:10;20.40;;;4.63;;
16101;SDS011;56411;52.964;10.540;2023-02-01T01:18:38;17.83;;;3.93;;
16101;SDS011;56411;52.964;10.540;2023-02-01T01:21:06;21.83;;;3.97;;
16101;SDS011;56411;52.964;10.540;2023-02-01T01:23:34;26.17;;;4.57;;
16101;SDS011;56411;52.964;10.540;2023-02-01T01:26:04;24.50;;;4.60;;
16101;SDS011;56411;52.964;10.540;2023-02-01T01:28:32;18.67;;;3.40;;
16101;SDS011;56411;52.964;10.540;2023-02-01T01:30:58;22.83;;;4.40;;
16101;SDS011;56411;52.964;10.540;2023-02-01T01:33:25;20.63;;;4.20;;
16101;SDS011;56411;52.964;10.540;2023-02-01T01:35:54;17.90;;;3.40;;
16101;SDS011;56411;52.964;10.540;2023-02-01T01:38:21;18.00;;;3.73;;
16101;SDS011;56411;52.964;10.540;2023-02-01T01:40:48;22.07;;;5.13;;
16101;SDS011;56411;52.964;10.540;2023-02-01T01:43:16;21.60;;;4.10;;
16101;SDS011;56411;52.964;10.540;2023-02-01T01:45:47;20.30;;;4.27;;
16101;SDS011;56411;52.964;10.540;2023-02-01T01:48:16;23.80;;;4.40;;
16101;SDS011;56411;52.964;10.540;2023-02-01T01:50:45;21.23;;;4.70;;
16101;SDS011;56411;52.964;10.540;2023-02-01T01:53:18;21.83;;;3.80;;
16101;SDS011;56411;52.964;10.540;2023-02-01T01:55:51;18.50;;;3.93;;
16101;SDS011;56411;52.964;10.540;2023-02-01T01:58:21;18.70;;;4.00;;
16101;SDS011;56411;52.964;10.540;2023-02-01T02:00:51;22.10;;;4.73;;
16101;SDS011;56411;52.964;10.540;2023-02-01T02:03:20;23.20;;;3.77;;
16101;SDS011;56411;52.964;10.540;2023-02-01T02:05:50;23.40;;;4.80;;
16101;SDS011;56411;52.964;10.540;2023-02-01T02:08:22;27.77;;;5.20;;
16101;SDS011;56411;52.964;10.540;2023-02-01T02:10:51;20.53;;;4.97;;
16101;SDS011;56411;52.964;10.540;2023-02-01T02:13:27;19.70;;;4.50;;
16101;SDS011;56411;52.964;10.540;2023-02-01T02:16:08;24.70;;;4.50;;
16101;SDS011;56411;52.964;10.540;2023-02-01T02:18:48;21.03;;;4.30;;
16101;SDS011;56411;52.964;10.540;2023-02-01T02:21:31;24.00;;;5.03;;
16101;SDS011;56411;52.964;10.540;2023-02-01T02:24:33;24.07;;;5.20;;
16101;SDS011;56411;52.964;10.540;2023-02-01T02:27:39;23.33;;;4.13;;
16101;SDS011;56411;52.964;10.540;2023-02-01T02:30:22;20.27;;;4.17;;
16101;SDS011;56411;52.964;10.540;2023-02-01T02:36:19;22.23;;;4.00;;
16101;SDS011;56411;52.964;10.540;2023-02-01T02:38:58;20.80;;;4.37;;
16101;SDS011;56411;52.964;10.540;2023-02-01T02:41:34;19.40;;;4.10;;
16101;SDS011;56411;52.964;10.540;2023-02-01T02:44:31;23.20;;;4.73;;
16101;SDS011;56411;52.964;10.540;2023-02-01T02:47:21;19.37;;;4.43;;
16101;SDS011;56411;52.964;10.540;2023-02-01T02:49:55;18.10;;;3.70;;
16101;SDS011;56411;52.964;10.540;2023-02-01T02:52:48;19.93;;;4.47;;
16101;SDS011;56411;52.964;10.540;2023-02-01T02:55:38;24.17;;;4.00;;
16101;SDS011;56411;52.964;10.540;2023-02-01T02:58:07;21.57;;;4.37;;
16101;SDS011;56411;52.964;10.540;2023-02-01T03:00:54;24.73;;;5.03;;
16101;SDS011;56411;52.964;10.540;2023-02-01T03:03:40;20.03;;;4.13;;
16101;SDS011;56411;52.964;10.540;2023-02-01T03:06:27;18.13;;;4.10;;
16101;SDS011;56411;52.964;10.540;2023-02-01T03:08:54;23.50;;;5.03;;
16101;SDS011;56411;52.964;10.540;2023-02-01T03:11:24;21.73;;;4.20;;
16101;SDS011;56411;52.964;10.540;2023-02-01T03:14:13;17.77;;;4.07;;
16101;SDS011;56411;52.964;10.540;2023-02-01T03:16:42;19.57;;;4.60;;
16101;SDS011;56411;52.964;10.540;2023-02-01T03:19:14;24.60;;;4.37;;
16101;SDS011;56411;52.964;10.540;2023-02-01T03:21:47;16.77;;;3.90;;
16101;SDS011;56411;52.964;10.540;2023-02-01T03:24:17;13.97;;;3.50;;
16101;SDS011;56411;52.964;10.540;2023-02-01T03:26:49;22.47;;;4.43;;
16101;SDS011;56411;52.964;10.540;2023-02-01T03:29:21;25.17;;;3.90;;
16101;SDS011;56411;52.964;10.540;2023-02-01T03:31:51;23.37;;;4.60;;
16101;SDS011;56411;52.964;10.540;2023-02-01T03:34:18;23.83;;;4.57;;
16101;SDS011;56411;52.964;10.540;2023-02-01T03:36:48;19.53;;;4.67;;
16101;SDS011;56411;52.964;10.540;2023-02-01T03:39:18;23.23;;;4.60;;
16101;SDS011;56411;52.964;10.540;2023-02-01T03:41:50;20.60;;;4.70;;
16101;SDS011;56411;52.964;10.540;2023-02-01T03:44:20;19.37;;;3.97;;
16101;SDS011;56411;52.964;10.540;2023-02-01T03:46:52;21.53;;;4.33;;
16101;SDS011;56411;52.964;10.540;2023-02-01T03:49:22;20.43;;;4.27;;
16101;SDS011;56411;52.964;10.540;2023-02-01T03:51:53;23.23;;;4.50;;
16101;SDS011;56411;52.964;10.540;2023-02-01T03:54:23;21.03;;;4.37;;
16101;SDS011;56411;52.964;10.540;2023-02-01T03:56:52;22.10;;;4.33;;
16101;SDS011;56411;52.964;10.540;2023-02-01T03:59:22;17.67;;;4.00;;
16101;SDS011;56411;52.964;10.540;2023-02-01T04:01:50;21.37;;;4.43;;
16101;SDS011;56411;52.964;10.540;2023-02-01T04:04:18;25.07;;;5.27;;
16101;SDS011;56411;52.964;10.540;2023-02-01T04:06:45;22.90;;;4.70;;
16101;SDS011;56411;52.964;10.540;2023-02-01T04:09:14;19.43;;;4.20;;
16101;SDS011;56411;52.964;10.540;2023-02-01T04:11:41;25.33;;;4.63;;
16101;SDS011;56411;52.964;10.540;2023-02-01T04:14:09;24.43;;;5.53;;
16101;SDS011;56411;52.964;10.540;2023-02-01T04:16:36;20.53;;;4.30;;
16101;SDS011;56411;52.964;10.540;2023-02-01T04:19:03;19.27;;;4.10;;
16101;SDS011;56411;52.964;10.540;2023-02-01T04:21:30;20.10;;;4.43;;
16101;SDS011;56411;52.964;10.540;2023-02-01T04:23:57;22.67;;;4.50;;
16101;SDS011;56411;52.964;10.540;2023-02-01T04:26:26;19.13;;;4.10;;
16101;SDS011;56411;52.964;10.540;2023-02-01T04:28:52;21.23;;;4.70;;
16101;SDS011;56411;52.964;10.540;2023-02-01T04:31:19;20.10;;;4.73;;
16101;SDS011;56411;52.964;10.540;2023-02-01T04:33:50;22.03;;;5.10;;
16101;SDS011;56411;52.964;10.540;2023-02-01T04:36:18;18.53;;;4.30;;
16101;SDS011;56411;52.964;10.540;2023-02-01T04:38:46;19.80;;;4.23;;
16101;SDS011;56411;52.964;10.540;2023-02-01T04:41:14;20.53;;;4.57;;
16101;SDS011;56411;52.964;10.540;2023-02-01T04:43:45;18.50;;;4.10;;
16101;SDS011;56411;52.964;10.540;2023-02-01T04:46:12;22.50;;;4.73;;
16101;SDS011;56411;52.964;10.540;2023-02-01T04:48:39;20.30;;;4.30;;
16101;SDS011;56411;52.964;10.540;2023-02-01T04:51:06;19.53;;;4.20;;
16101;SDS011;56411;52.964;10.540;2023-02-01T04:53:34;19.43;;;4.67;;
16101;SDS011;56411;52.964;10.540;2023-02-01T04:56:01;19.23;;;4.83;;
16101;SDS011;56411;52.964;10.540;2023-02-01T04:58:28;26.00;;;5.17;;
16101;SDS011;56411;52.964;10.540;2023-02-01T05:00:56;21.70;;;5.40;;
16101;SDS011;56411;52.964;10.540;2023-02-01T05:03:23;17.03;;;4.40;;
16101;SDS011;56411;52.964;10.540;2023-02-01T05:05:50;17.33;;;4.30;;
16101;SDS011;56411;52.964;10.540;2023-02-01T05:08:18;22.53;;;5.43;;
16101;SDS011;56411;52.964;10.540;2023-02-01T05:10:47;22.50;;;4.43;;
16101;SDS011;56411;52.964;10.540;2023-02-01T05:13:14;25.47;;;5.33;;
16101;SDS011;56411;52.964;10.540;2023-02-01T05:15:59;16.83;;;4.40;;
16101;SDS011;56411;52.964;10.540;2023-02-01T05:18:26;24.70;;;5.63;;
16101;SDS011;56411;52.964;10.540;2023-02-01T05:20:53;23.27;;;5.83;;
16101;SDS011;56411;52.964;10.540;2023-02-01T05:23:20;25.13;;;5.37;;
16101;SDS011;56411;52.964;10.540;2023-02-01T05:25:47;19.47;;;4.40;;
16101;SDS011;56411;52.964;10.540;2023-02-01T05:28:17;18.23;;;4.30;;
16101;SDS011;56411;52.964;10.540;2023-02-01T05:30:44;20.17;;;5.13;;
16101;SDS011;56411;52.964;10.540;2023-02-01T05:33:13;19.70;;;5.03;;
16101;SDS011;56411;52.964;10.540;2023-02-01T05:35:40;20.10;;;4.40;;
16101;SDS011;56411;52.964;10.540;2023-02-01T05:38:06;21.90;;;5.70;;
16101;SDS011;56411;52.964;10.540;2023-02-01T05:40:33;20.57;;;4.47;;
16101;SDS011;56411;52.964;10.540;2023-02-01T05:43:00;15.57;;;4.97;;
16101;SDS011;56411;52.964;10.540;2023-02-01T05:45:27;17.90;;;4.40;;
16101;SDS011;56411;52.964;10.540;2023-02-01T05:47:54;15.93;;;4.50;;
16101;SDS011;56411;52.964;10.540;2023-02-01T05:50:23;19.13;;;4.57;;
16101;SDS011;56411;52.964;10.540;2023-02-01T05:52:50;12.13;;;3.80;;
16101;SDS011;56411;52.964;10.540;2023-02-01T05:55:17;16.43;;;4.13;;
16101;SDS011;56411;52.964;10.540;2023-02-01T05:57:43;11.97;;;3.80;;
16101;SDS011;56411;52.964;10.540;2023-02-01T06:00:11;15.03;;;3.80;;
16101;SDS011;56411;52.964;10.540;2023-02-01T06:02:38;17.83;;;4.33;;
16101;SDS011;56411;52.964;10.540;2023-02-01T06:05:06;18.53;;;4.30;;
16101;SDS011;56411;52.964;10.540;2023-02-01T06:07:35;10.30;;;3.77;;
16101;SDS011;56411;52.964;10.540;2023-02-01T06:10:02;12.13;;;3.63;;
16101;SDS011;56411;52.964;10.540;2023-02-01T06:12:29;11.13;;;3.80;;
16101;SDS011;56411;52.964;10.540;2023-02-01T06:14:56;16.13;;;4.63;;
16101;SDS011;56411;52.964;10.540;2023-02-01T06:17:24;15.50;;;4.00;;
16101;SDS011;56411;52.964;10.540;2023-02-01T06:19:51;13.20;;;3.60;;
16101;SDS011;56411;52.964;10.540;2023-02-01T06:22:18;12.47;;;4.30;;
16101;SDS011;56411;52.964;10.540;2023-02-01T06:24:48;9.90;;;3.53;;
16101;SDS011;56411;52.964;10.540;2023-02-01T06:27:15;14.10;;;4.33;;
16101;SDS011;56411;52.964;10.540;2023-02-01T06:29:41;15.50;;;4.10;;
16101;SDS011;56411;52.964;10.540;2023-02-01T06:32:09;13.00;;;3.97;;
16101;SDS011;56411;52.964;10.540;2023-02-01T06:34:36;10.17;;;3.60;;
16101;SDS011;56411;52.964;10.540;2023-02-01T06:37:04;13.77;;;3.50;;
16101;SDS011;56411;52.964;10.540;2023-02-01T06:39:31;11.70;;;3.37;;
16101;SDS011;56411;52.964;10.540;2023-02-01T06:42:00;11.33;;;3.23;;
16101;SDS011;56411;52.964;10.540;2023-02-01T06:44:26;9.07;;;3.17;;
16101;SDS011;56411;52.964;10.540;2023-02-01T06:46:54;5.87;;;2.13;;
16101;SDS011;56411;52.964;10.540;2023-02-01T06:49:21;5.53;;;2.27;;
16101;SDS011;56411;52.964;10.540;2023-02-01T06:51:48;5.63;;;2.50;;
16101;SDS011;56411;52.964;10.540;2023-02-01T06:54:15;6.77;;;2.50;;
16101;SDS011;56411;52.964;10.540;2023-02-01T06:56:42;4.23;;;1.80;;
16101;SDS011;56411;52.964;10.540;2023-02-01T06:59:10;5.83;;;2.13;;
16101;SDS011;56411;52.964;10.540;2023-02-01T07:01:38;5.13;;;1.83;;
16101;SDS011;56411;52.964;10.540;2023-02-01T07:04:05;6.30;;;2.33;;
16101;SDS011;56411;52.964;10.540;2023-02-01T07:06:32;7.17;;;2.20;;
16101;SDS011;56411;52.964;10.540;2023-02-01T07:08:59;4.90;;;1.90;;
16101;SDS011;56411;52.964;10.540;2023-02-01T07:11:26;1.60;;;1.20;;
16101;SDS011;56411;52.964;10.540;2023-02-01T07:13:53;2.17;;;1.30;;
16101;SDS011;56411;52.964;10.540;2023-02-01T07:16:21;4.30;;;1.60;;
16101;SDS011;56411;52.964;10.540;2023-02-01T07:24:59;1.80;;;1.27;;
16101;SDS011;56411;52.964;10.540;2023-02-01T07:27:26;8.87;;;1.77;;
16101;SDS011;56411;52.964;10.540;2023-02-01T07:29:53;3.70;;;1.63;;
16101;SDS011;56411;52.964;10.540;2023-02-01T07:32:22;5.30;;;1.87;;
16101;SDS011;56411;52.964;10.540;2023-02-01T07:34:49;7.20;;;2.27;;
16101;SDS011;56411;52.964;10.540;2023-02-01T07:37:15;5.40;;;1.80;;
16101;SDS011;56411;52.964;10.540;2023-02-01T07:39:43;1.73;;;1.50;;
16101;SDS011;56411;52.964;10.540;2023-02-01T07:42:11;6.00;;;2.00;;
16101;SDS011;56411;52.964;10.540;2023-02-01T07:44:38;5.03;;;1.67;;
16101;SDS011;56411;52.964;10.540;2023-02-01T07:47:06;4.33;;;1.80;;
16101;SDS011;56411;52.964;10.540;2023-02-01T07:49:34;13.87;;;5.53;;
16101;SDS011;56411;52.964;10.540;2023-02-01T07:52:01;5.37;;;1.90;;
16101;SDS011;56411;52.964;10.540;2023-02-01T07:54:28;8.03;;;2.10;;
16101;SDS011;56411;52.964;10.540;2023-02-01T07:56:55;8.77;;;2.30;;
16101;SDS011;56411;52.964;10.540;2023-02-01T07:59:22;7.43;;;2.10;;
16101;SDS011;56411;52.964;10.540;2023-02-01T08:01:49;10.60;;;2.90;;
16101;SDS011;56411;52.964;10.540;2023-02-01T08:04:18;13.97;;;3.63;;
16101;SDS011;56411;52.964;10.540;2023-02-01T08:06:46;9.20;;;3.03;;
16101;SDS011;56411;52.964;10.540;2023-02-01T08:09:14;13.83;;;4.90;;
16101;SDS011;56411;52.964;10.540;2023-02-01T08:11:41;16.20;;;4.33;;
16101;SDS011;56411;52.964;10.540;2023-02-01T08:14:08;18.40;;;4.77;;
16101;SDS011;56411;52.964;10.540;2023-02-01T08:16:35;16.30;;;4.20;;
16101;SDS011;56411;52.964;10.540;2023-02-01T08:19:04;15.63;;;4.63;;
16101;SDS011;56411;52.964;10.540;2023-02-01T08:21:31;20.17;;;4.93;;
16101;SDS011;56411;52.964;10.540;2023-02-01T08:24:04;18.03;;;4.87;;
16101;SDS011;56411;52.964;10.540;2023-02-01T08:26:34;21.90;;;4.67;;
16101;SDS011;56411;52.964;10.540;2023-02-01T08:29:01;21.30;;;5.25;;
16101;SDS011;56411;52.964;10.540;2023-02-01T08:31:30;24.17;;;5.37;;
16101;SDS011;56411;52.964;10.540;2023-02-01T08:33:58;17.03;;;4.20;;
16101;SDS011;56411;52.964;10.540;2023-02-01T08:36:27;20.73;;;5.17;;
16101;SDS011;56411;52.964;10.540;2023-02-01T08:38:55;26.13;;;6.07;;
16101;SDS011;56411;52.964;10.540;2023-02-01T08:41:24;18.80;;;4.80;;
16101;SDS011;56411;52.964;10.540;2023-02-01T08:43:53;21.30;;;4.90;;
16101;SDS011;56411;52.964;10.540;2023-02-01T08:46:21;20.17;;;4.70;;
16101;SDS011;56411;52.964;10.540;2023-02-01T08:48:48;19.37;;;5.97;;
16101;SDS011;56411;52.964;10.540;2023-02-01T08:51:17;18.10;;;4.77;;
16101;SDS011;56411;52.964;10.540;2023-02-01T08:53:48;19.60;;;4.43;;
16101;SDS011;56411;52.964;10.540;2023-02-01T08:56:15;16.17;;;4.10;;
16101;SDS011;56411;52.964;10.540;2023-02-01T08:58:45;18.33;;;5.30;;
16101;SDS011;56411;52.964;10.540;2023-02-01T09:01:12;15.90;;;4.57;;
16101;SDS011;56411;52.964;10.540;2023-02-01T09:03:40;22.40;;;4.50;;
16101;SDS011;56411;52.964;10.540;2023-02-01T09:06:08;17.20;;;3.83;;
16101;SDS011;56411;52.964;10.540;2023-02-01T09:08:36;15.57;;;3.40;;
16101;SDS011;56411;52.964;10.540;2023-02-01T09:11:05;20.80;;;3.63;;
16101;SDS011;56411;52.964;10.540;2023-02-01T09:13:33;13.37;;;2.60;;
16101;SDS011;56411;52.964;10.540;2023-02-01T09:16:02;12.20;;;2.77;;
16101;SDS011;56411;52.964;10.540;2023-02-01T09:18:29;12.73;;;2.93;;
16101;SDS011;56411;52.964;10.540;2023-02-01T09:20:56;12.10;;;2.47;;
16101;SDS011;56411;52.964;10.540;2023-02-01T09:23:23;11.30;;;2.77;;
16101;SDS011;56411;52.964;10.540;2023-02-01T09:25:50;16.33;;;3.20;;
16101;SDS011;56411;52.964;10.540;2023-02-01T09:28:17;18.77;;;3.87;;
16101;SDS011;56411;52.964;10.540;2023-02-01T09:30:44;15.70;;;3.00;;
16101;SDS011;56411;52.964;10.540;2023-02-01T09:33:13;17.23;;;3.90;;
16101;SDS011;56411;52.964;10.540;2023-02-01T09:35:40;17.50;;;3.47;;
16101;SDS011;56411;52.964;10.540;2023-02-01T09:38:07;19.60;;;3.90;;
16101;SDS011;56411;52.964;10.540;2023-02-01T09:40:34;20.17;;;3.67;;
16101;SDS011;56411;52.964;10.540;2023-02-01T09:45:49;20.43;;;4.00;;
16101;SDS011;56411;52.964;10.540;2023-02-01T09:48:32;17.50;;;4.70;;
16101;SDS011;56411;52.964;10.540;2023-02-01T09:51:04;24.50;;;5.43;;
16101;SDS011;56411;52.964;10.540;2023-02-01T09:53:38;20.13;;;5.03;;
16101;SDS011;56411;52.964;10.540;2023-02-01T09:56:10;20.90;;;4.97;;
16101;SDS011;56411;52.964;10.540;2023-02-01T09:58:41;18.13;;;3.93;;
16101;SDS011;56411;52.964;10.540;2023-02-01T10:01:13;19.87;;;4.50;;
16101;SDS011;56411;52.964;10.540;2023-02-01T10:03:45;22.90;;;4.70;;
16101;SDS011;56411;52.964;10.540;2023-02-01T10:06:20;18.67;;;4.57;;
16101;SDS011;56411;52.964;10.540;2023-02-01T10:09:05;18.60;;;4.37;;
16101;SDS011;56411;52.964;10.540;2023-02-01T10:11:51;20.10;;;4.30;;
16101;SDS011;56411;52.964;10.540;2023-02-01T10:17:21;18.87;;;4.33;;
16101;SDS011;56411;52.964;10.540;2023-02-01T10:20:00;19.63;;;3.93;;
16101;SDS011;56411;52.964;10.540;2023-02-01T10:22:37;20.03;;;3.80;;
16101;SDS011;56411;52.964;10.540;2023-02-01T10:25:08;17.33;;;3.63;;
16101;SDS011;56411;52.964;10.540;2023-02-01T10:27:43;15.93;;;3.70;;
16101;SDS011;56411;52.964;10.540;2023-02-01T10:32:45;18.80;;;3.57;;
16101;SDS011;56411;52.964;10.540;2023-02-01T10:35:18;18.93;;;5.03;;
16101;SDS011;56411;52.964;10.540;2023-02-01T10:37:48;12.63;;;3.63;;
16101;SDS011;56411;52.964;10.540;2023-02-01T10:40:16;13.33;;;3.03;;
16101;SDS011;56411;52.964;10.540;2023-02-01T10:42:46;16.30;;;3.40;;
16101;SDS011;56411;52.964;10.540;2023-02-01T10:45:16;14.83;;;3.40;;
16101;SDS011;56411;52.964;10.540;2023-02-01T10:47:45;15.70;;;3.50;;
16101;SDS011;56411;52.964;10.540;2023-02-01T10:50:18;20.33;;;3.80;;
16101;SDS011;56411;52.964;10.540;2023-02-01T10:52:57;18.83;;;4.33;;
16101;SDS011;56411;52.964;10.540;2023-02-01T10:55:32;15.03;;;3.43;;
16101;SDS011;56411;52.964;10.540;2023-02-01T10:58:03;20.07;;;3.30;;
16101;SDS011;56411;52.964;10.540;2023-02-01T11:00:41;13.90;;;3.13;;
16101;SDS011;56411;52.964;10.540;2023-02-01T11:03:20;15.30;;;3.00;;
16101;SDS011;56411;52.964;10.540;2023-02-01T11:05:56;15.20;;;3.57;;
16101;SDS011;56411;52.964;10.540;2023-02-01T11:08:23;17.80;;;4.27;;
16101;SDS011;56411;52.964;10.540;2023-02-01T11:10:56;19.80;;;4.17;;
16101;SDS011;56411;52.964;10.540;2023-02-01T11:13:28;21.00;;;4.27;;
16101;SDS011;56411;52.964;10.540;2023-02-01T11:15:57;21.33;;;3.90;;
16101;SDS011;56411;52.964;10.540;2023-02-01T11:18:25;17.30;;;3.77;;
16101;SDS011;56411;52.964;10.540;2023-02-01T11:20:56;26.77;;;4.80;;
16101;SDS011;56411;52.964;10.540;2023-02-01T11:23:25;17.73;;;3.63;;
16101;SDS011;56411;52.964;10.540;2023-02-01T11:25:55;15.60;;;3.90;;
16101;SDS011;56411;52.964;10.540;2023-02-01T11:28:25;19.70;;;3.93;;
16101;SDS011;56411;52.964;10.540;2023-02-01T11:30:56;18.13;;;4.30;;
16101;SDS011;56411;52.964;10.540;2023-02-01T11:33:26;18.57;;;3.97;;
16101;SDS011;56411;52.964;10.540;2023-02-01T11:36:01;19.77;;;3.97;;
16101;SDS011;56411;52.964;10.540;2023-02-01T11:38:34;15.23;;;4.20;;
16101;SDS011;56411;52.964;10.540;2023-02-01T11:41:11;19.47;;;4.30;;
16101;SDS011;56411;52.964;10.540;2023-02-01T11:43:50;16.57;;;3.77;;
16101;SDS011;56411;52.964;10.540;2023-02-01T11:46:19;16.33;;;4.00;;
16101;SDS011;56411;52.964;10.540;2023-02-01T11:48:50;14.50;;;3.23;;
16101;SDS011;56411;52.964;10.540;2023-02-01T11:51:34;18.87;;;4.27;;
16101;SDS011;56411;52.964;10.540;2023-02-01T11:54:16;15.53;;;3.33;;
16101;SDS011;56411;52.964;10.540;2023-02-01T11:56:59;10.50;;;2.83;;
16101;SDS011;56411;52.964;10.540;2023-02-01T11:59:51;12.50;;;2.97;;
16101;SDS011;56411;52.964;10.540;2023-02-01T12:02:48;13.73;;;3.00;;
16101;SDS011;56411;52.964;10.540;2023-02-01T12:05:29;14.60;;;4.03;;
16101;SDS011;56411;52.964;10.540;2023-02-01T12:11:29;15.60;;;3.47;;
16101;SDS011;56411;52.964;10.540;2023-02-01T12:14:06;12.13;;;3.00;;
16101;SDS011;56411;52.964;10.540;2023-02-01T12:16:47;12.50;;;2.30;;
16101;SDS011;56411;52.964;10.540;2023-02-01T12:19:32;9.13;;;1.73;;
16101;SDS011;56411;52.964;10.540;2023-02-01T12:22:22;11.87;;;3.47;;
16101;SDS011;56411;52.964;10.540;2023-02-01T12:25:18;12.60;;;3.47;;
16101;SDS011;56411;52.964;10.540;2023-02-01T12:28:04;13.63;;;2.90;;
16101;SDS011;56411;52.964;10.540;2023-02-01T12:30:54;14.97;;;3.47;;
16101;SDS011;56411;52.964;10.540;2023-02-01T12:33:33;11.97;;;2.70;;
16101;SDS011;56411;52.964;10.540;2023-02-01T12:36:10;9.10;;;3.00;;
16101;SDS011;56411;52.964;10.540;2023-02-01T12:38:51;13.77;;;2.90;;
16101;SDS011;56411;52.964;10.540;2023-02-01T12:41:27;12.83;;;3.60;;
16101;SDS011;56411;52.964;10.540;2023-02-01T12:44:08;12.10;;;3.57;;
16101;SDS011;56411;52.964;10.540;2023-02-01T12:46:46;10.00;;;2.90;;
16101;SDS011;56411;52.964;10.540;2023-02-01T12:49:17;15.87;;;3.33;;
16101;SDS011;56411;52.964;10.540;2023-02-01T12:51:52;15.37;;;3.47;;
16101;SDS011;56411;52.964;10.540;2023-02-01T12:54:26;14.97;;;3.40;;
16101;SDS011;56411;52.964;10.540;2023-02-01T12:57:03;8.73;;;2.67;;
16101;SDS011;56411;52.964;10.540;2023-02-01T12:59:36;10.40;;;2.13;;
16101;SDS011;56411;52.964;10.540;2023-02-01T13:02:11;9.47;;;2.47;;
16101;SDS011;56411;52.964;10.540;2023-02-01T13:04:49;9.33;;;2.80;;
16101;SDS011;56411;52.964;10.540;2023-02-01T13:07:24;8.43;;;2.50;;
16101;SDS011;56411;52.964;10.540;2023-02-01T13:09:57;9.57;;;2.30;;
16101;SDS011;56411;52.964;10.540;2023-02-01T13:12:32;11.50;;;3.13;;
16101;SDS011;56411;52.964;10.540;2023-02-01T13:15:03;11.50;;;2.60;;
16101;SDS011;56411;52.964;10.540;2023-02-01T13:17:37;7.77;;;2.07;;
16101;SDS011;56411;52.964;10.540;2023-02-01T13:20:07;6.40;;;1.87;;
16101;SDS011;56411;52.964;10.540;2023-02-01T13:22:42;7.63;;;2.10;;
16101;SDS011;56411;52.964;10.540;2023-02-01T13:25:13;7.13;;;2.10;;
16101;SDS011;56411;52.964;10.540;2023-02-01T13:27:43;6.03;;;1.83;;
16101;SDS011;56411;52.964;10.540;2023-02-01T13:30:13;6.40;;;2.00;;
16101;SDS011;56411;52.964;10.540;2023-02-01T13:38:51;8.87;;;2.27;;
16101;SDS011;56411;52.964;10.540;2023-02-01T13:41:38;3.23;;;1.23;;
16101;SDS011;56411;52.964;10.540;2023-02-01T13:44:11;3.87;;;1.40;;
16101;SDS011;56411;52.964;10.540;2023-02-01T13:46:45;4.90;;;1.80;;
16101;SDS011;56411;52.964;10.540;2023-02-01T13:49:17;2.60;;;1.57;;
16101;SDS011;56411;52.964;10.540;2023-02-01T13:51:48;2.93;;;1.47;;
16101;SDS011;56411;52.964;10.540;2023-02-01T13:54:25;3.07;;;1.80;;
16101;SDS011;56411;52.964;10.540;2023-02-01T13:56:55;3.90;;;1.40;;
16101;SDS011;56411;52.964;10.540;2023-02-01T14:02:37;4.37;;;1.80;;
16101;SDS011;56411;52.964;10.540;2023-02-01T14:08:23;2.63;;;1.10;;
16101;SDS011;56411;52.964;10.540;2023-02-01T14:11:03;4.27;;;2.30;;
16101;SDS011;56411;52.964;10.540;2023-02-01T14:13:30;3.27;;;1.50;;
16101;SDS011;56411;52.964;10.540;2023-02-01T14:16:15;2.90;;;1.37;;
16101;SDS011;56411;52.964;10.540;2023-02-01T14:18:49;2.70;;;1.20;;
16101;SDS011;56411;52.964;10.540;2023-02-01T14:21:28;2.33;;;1.30;;
16101;SDS011;56411;52.964;10.540;2023-02-01T14:23:58;3.93;;;1.70;;
16101;SDS011;56411;52.964;10.540;2023-02-01T14:26:27;2.67;;;1.67;;
16101;SDS011;56411;52.964;10.540;2023-02-01T14:29:22;1.90;;;1.27;;
16101;SDS011;56411;52.964;10.540;2023-02-01T14:31:59;2.20;;;1.30;;
16101;SDS011;56411;52.964;10.540;2023-02-01T14:34:31;4.23;;;1.40;;
16101;SDS011;56411;52.964;10.540;2023-02-01T14:37:09;2.87;;;1.30;;
16101;SDS011;56411;52.964;10.540;2023-02-01T14:39:52;3.33;;;1.20;;
16101;SDS011;56411;52.964;10.540;2023-02-01T14:42:24;2.23;;;1.30;;
16101;SDS011;56411;52.964;10.540;2023-02-01T14:44:53;7.00;;;1.97;;
16101;SDS011;56411;52.964;10.540;2023-02-01T14:47:32;5.43;;;1.60;;
16101;SDS011;56411;52.964;10.540;2023-02-01T14:50:03;2.77;;;1.37;;
16101;SDS011;56411;52.964;10.540;2023-02-01T14:52:46;4.43;;;1.47;;
16101;SDS011;56411;52.964;10.540;2023-02-01T14:55:18;11.17;;;2.37;;
16101;SDS011;56411;52.964;10.540;2023-02-01T14:57:48;6.13;;;1.80;;
16101;SDS011;56411;52.964;10.540;2023-02-01T15:00:21;9.37;;;2.00;;
16101;SDS011;56411;52.964;10.540;2023-02-01T15:02:51;9.13;;;1.90;;
16101;SDS011;56411;52.964;10.540;2023-02-01T15:05:22;11.20;;;2.10;;
16101;SDS011;56411;52.964;10.540;2023-02-01T15:08:03;8.60;;;2.03;;
16101;SDS011;56411;52.964;10.540;2023-02-01T15:10:39;10.80;;;2.10;;
16101;SDS011;56411;52.964;10.540;2023-02-01T15:13:12;9.77;;;2.20;;
16101;SDS011;56411;52.964;10.540;2023-02-01T15:15:59;6.43;;;2.00;;
16101;SDS011;56411;52.964;10.540;2023-02-01T15:18:28;10.50;;;2.40;;
16101;SDS011;56411;52.964;10.540;2023-02-01T15:20:56;14.77;;;2.87;;
16101;SDS011;56411;52.964;10.540;2023-02-01T15:23:24;12.70;;;3.20;;